Hai Hua — XUDB9 — position and weather

sailwx.info

Track history (hours):
 
Tides and Currents Weather Stations Pressure Air Temp Water Temp Dewpoint Dewpoint Depression Visibility Wind Speed Wind Dir Waves Ship Positions

Hai Hua

Last reported at 2016-Apr-23 12:18 UTC. Time now 2016-Sep-30 03:20 UTC.
Position N 36°59' E 122°39'.
Warning: this ship's position is months out of date.

Length 69 m; draft 3.5 m.

Type: Cargo ship. MMSI: 515171000.

Date/timePositionNaut miles runAvg speedWind from/ knotsBaromVisibWave heightAir tempDewpointWater temp
2016-Apr-23 12:18N 36°59' E 122°39'24 8.6
2016-Apr-23 09:32N 37°22' E 122°46'10 9.1
2016-Apr-23 08:29N 37°31' E 122°41'1010.4
2016-Apr-23 07:31N 37°34' E 122°29'1110.9
2016-Apr-23 06:30N 37°37' E 122°15'1010.8
2016-Apr-23 05:31N 37°40' E 122°02'2210.6
2016-Apr-23 03:27N 37°39' E 121°35'8 9.0
2016-Apr-23 02:32N 37°34' E 121°26'1 0.0
2016-Apr-22 02:15N 37°33' E 121°25'22 5.4
2016-Apr-21 22:08N 37°39' E 121°53'6 9.6
2016-Apr-21 21:31N 37°39' E 121°60'9 9.5
2016-Apr-21 20:32N 37°39' E 122°12'9 9.4
2016-Apr-21 19:33N 37°37' E 122°23'9 9.0
2016-Apr-21 18:33N 37°35' E 122°34'9 8.6
2016-Apr-21 17:33N 37°33' E 122°45'  
2016-Apr-14 15:29N 31°06' E 121°58'1011.0
2016-Apr-14 14:32N 31°13' E 121°49'1111.2
2016-Apr-14 13:31N 31°21' E 121°39'8 8.4
2016-Apr-14 12:32N 31°22' E 121°30'1 0.3
2016-Apr-14 07:25N 31°21' E 121°31'0 0.0
2016-Apr-14 06:31N 31°21' E 121°31'0 0.0
2016-Apr-14 05:25N 31°21' E 121°31'0 0.0
2016-Apr-14 03:25N 31°21' E 121°31'0 0.0
2016-Apr-14 00:19N 31°21' E 121°31'0 0.0
2016-Apr-13 23:13N 31°21' E 121°31'0 0.0
2016-Apr-13 22:31N 31°21' E 121°31'0 0.0
2016-Apr-13 21:25N 31°21' E 121°31'0 0.0
2016-Apr-13 20:31N 31°21' E 121°31'0 0.0
2016-Apr-13 19:31N 31°21' E 121°31'0 0.0
2016-Apr-13 18:19N 31°21' E 121°31'0 0.0
2016-Apr-13 17:13N 31°21' E 121°31'0 0.0
2016-Apr-13 14:19N 31°21' E 121°31'0 0.0
2016-Apr-13 13:31N 31°21' E 121°31'0 0.0
2016-Apr-13 12:31N 31°21' E 121°31'  
Track history (hours):
 
Tides and Currents Weather Stations Pressure Air Temp Water Temp Dewpoint Dewpoint Depression Visibility Wind Speed Wind Dir Waves Ship Positions

Hai Hua

Last reported at 2016-Apr-23 12:18 UTC. Time now 2016-Sep-30 03:20 UTC.
Position N 36°59' E 122°39'.
Warning: this ship's position is months out of date.

Length 69 m; draft 3.5 m.

Type: Cargo ship. MMSI: 515171000.

Date/timePositionNaut miles runAvg speedWind from/ knotsBaromVisibWave heightAir tempDewpointWater temp
2016-Apr-23 12:18N 36°59' E 122°39'24 8.6
2016-Apr-23 09:32N 37°22' E 122°46'10 9.1
2016-Apr-23 08:29N 37°31' E 122°41'1010.4
2016-Apr-23 07:31N 37°34' E 122°29'1110.9
2016-Apr-23 06:30N 37°37' E 122°15'1010.8
2016-Apr-23 05:31N 37°40' E 122°02'2210.6
2016-Apr-23 03:27N 37°39' E 121°35'8 9.0
2016-Apr-23 02:32N 37°34' E 121°26'1 0.0
2016-Apr-22 02:15N 37°33' E 121°25'22 5.4
2016-Apr-21 22:08N 37°39' E 121°53'6 9.6
2016-Apr-21 21:31N 37°39' E 121°60'9 9.5
2016-Apr-21 20:32N 37°39' E 122°12'9 9.4
2016-Apr-21 19:33N 37°37' E 122°23'9 9.0
2016-Apr-21 18:33N 37°35' E 122°34'9 8.6
2016-Apr-21 17:33N 37°33' E 122°45'  
2016-Apr-14 15:29N 31°06' E 121°58'1011.0
2016-Apr-14 14:32N 31°13' E 121°49'1111.2
2016-Apr-14 13:31N 31°21' E 121°39'8 8.4
2016-Apr-14 12:32N 31°22' E 121°30'1 0.3
2016-Apr-14 07:25N 31°21' E 121°31'0 0.0
2016-Apr-14 06:31N 31°21' E 121°31'0 0.0
2016-Apr-14 05:25N 31°21' E 121°31'0 0.0
2016-Apr-14 03:25N 31°21' E 121°31'0 0.0
2016-Apr-14 00:19N 31°21' E 121°31'0 0.0
2016-Apr-13 23:13N 31°21' E 121°31'0 0.0
2016-Apr-13 22:31N 31°21' E 121°31'0 0.0
2016-Apr-13 21:25N 31°21' E 121°31'0 0.0
2016-Apr-13 20:31N 31°21' E 121°31'0 0.0
2016-Apr-13 19:31N 31°21' E 121°31'0 0.0
2016-Apr-13 18:19N 31°21' E 121°31'0 0.0
2016-Apr-13 17:13N 31°21' E 121°31'0 0.0
2016-Apr-13 14:19N 31°21' E 121°31'0 0.0
2016-Apr-13 13:31N 31°21' E 121°31'0 0.0
2016-Apr-13 12:31N 31°21' E 121°31'  

Dump ship's entire track history